< < Back
Terminal Aerodrome Forecast


Current Version              Previous Versions:   1  2  3  4  5  6  7  8  9  

Terminal Aerodrome Forecast

031
FTUS42 KCHS 201000 AAB
TAFSAV
TAF AMD
KSAV 201001Z 2010/2106 36010KT 5SM BR VCSH SCT003 OVC006
     FM201400 01015G22KT P6SM SCT008 OVC015
     FM201700 01015G25KT P6SM SCT015 BKN020
     FM210000 36011KT P6SM BKN035=



Latest METAR

613
SAUS80 KWBC 201100
MTRSAV
METAR KSAV 201053Z 36009KT 7SM FEW003 BKN005 OVC008 12/09 A3008 RMK AO2
RAE45 SLP186 P0000 T01170094


USA.gov is the U.S. government's official web portal to all federal, state and local government web resources and services.